createdAt,value
2019-05-18T00:04:21.277Z,22.37
2019-05-18T00:09:39.935Z,20.20
2019-05-18T00:14:58.573Z,20.30
2019-05-18T00:20:17.215Z,22.48
2019-05-18T00:25:37.044Z,20.47
2019-05-18T00:30:55.740Z,21.70
2019-05-18T00:36:14.618Z,23.07
2019-05-18T00:41:33.255Z,25.33
2019-05-18T00:46:51.927Z,27.27
2019-05-18T00:52:10.579Z,25.13
2019-05-18T00:57:29.224Z,19.20
2019-05-18T01:02:47.942Z,20.90
2019-05-18T01:08:06.986Z,27.83
2019-05-18T01:13:25.660Z,27.97
2019-05-18T01:18:44.592Z,22.10
2019-05-18T01:24:03.231Z,24.43
2019-05-18T01:29:21.877Z,22.07
2019-05-18T01:34:40.604Z,31.00
2019-05-18T01:39:59.459Z,24.53
2019-05-18T01:45:18.467Z,23.77
2019-05-18T01:50:37.039Z,24.63
2019-05-18T01:55:55.756Z,22.67
2019-05-18T02:01:14.523Z,24.07
2019-05-18T02:06:33.151Z,31.13
2019-05-18T02:11:51.829Z,27.27
2019-05-18T02:17:10.482Z,27.50
2019-05-18T02:22:29.044Z,24.90
2019-05-18T02:27:47.647Z,28.53
2019-05-18T02:33:06.307Z,33.40
2019-05-18T02:38:24.969Z,32.80
2019-05-18T02:43:43.890Z,29.27
2019-05-18T02:49:02.565Z,31.20
2019-05-18T02:54:21.530Z,29.33
2019-05-18T02:59:40.179Z,28.10
2019-05-18T03:04:58.889Z,35.67
2019-05-18T03:10:17.991Z,30.97
2019-05-18T03:15:36.594Z,28.80
2019-05-18T03:20:55.239Z,34.57
2019-05-18T03:26:13.882Z,37.30
2019-05-18T03:31:32.472Z,30.13
2019-05-18T03:36:51.106Z,28.27
2019-05-18T03:42:09.793Z,30.57
2019-05-18T03:47:28.418Z,32.67
2019-05-18T03:52:47.059Z,33.60
2019-05-18T03:58:05.630Z,36.23
2019-05-18T04:03:24.300Z,36.17
2019-05-18T04:08:42.853Z,32.33
2019-05-18T04:14:01.528Z,40.47
2019-05-18T04:19:20.164Z,31.27
2019-05-18T04:24:38.667Z,27.83
2019-05-18T04:29:57.321Z,37.77
2019-05-18T04:35:15.976Z,86.82
2019-05-18T04:40:35.004Z,60.40
2019-05-18T04:45:53.739Z,18.87
2019-05-18T04:51:12.382Z,13.43
2019-05-18T04:56:31.047Z,9.47
2019-05-18T05:01:49.813Z,10.47
2019-05-18T05:07:08.499Z,8.93
2019-05-18T05:12:27.140Z,11.43
2019-05-18T05:17:45.711Z,10.48
2019-05-18T05:23:04.348Z,10.87
2019-05-18T05:28:22.908Z,12.37
2019-05-18T05:33:41.536Z,11.10
2019-05-18T05:39:01.825Z,11.13
2019-05-18T05:44:20.535Z,12.57
2019-05-18T05:49:39.180Z,11.97
2019-05-18T05:54:57.879Z,15.27
2019-05-18T06:00:17.026Z,16.37
2019-05-18T06:05:35.676Z,17.53
2019-05-18T06:10:54.402Z,13.93
2019-05-18T06:16:13.034Z,15.80
2019-05-18T06:21:31.598Z,14.87
2019-05-18T06:26:50.539Z,15.93
2019-05-18T06:32:09.184Z,14.27
2019-05-18T06:37:28.075Z,14.07
2019-05-18T06:42:46.643Z,14.47
2019-05-18T06:48:05.274Z,12.87
2019-05-18T06:53:23.920Z,13.30
2019-05-18T06:58:43.058Z,11.83
2019-05-18T07:04:01.733Z,12.80
2019-05-18T07:09:20.363Z,13.10
2019-05-18T07:14:39.017Z,12.33
2019-05-18T07:19:57.662Z,10.40
2019-05-18T07:25:16.810Z,11.83
2019-05-18T07:30:35.373Z,13.37
2019-05-18T07:35:53.935Z,16.53
2019-05-18T07:41:12.513Z,12.20
2019-05-18T07:46:31.103Z,10.00
2019-05-18T07:51:49.745Z,9.73
2019-05-18T07:57:08.393Z,11.10
2019-05-18T08:02:26.954Z,11.97
2019-05-18T08:07:45.615Z,12.23
2019-05-18T08:13:05.236Z,12.20
2019-05-18T08:18:24.260Z,16.37
2019-05-18T08:23:42.896Z,11.85
2019-05-18T08:29:01.741Z,11.77
2019-05-18T08:34:20.402Z,14.10
2019-05-18T08:39:39.149Z,12.13
2019-05-18T08:44:57.720Z,15.73
2019-05-18T08:50:16.692Z,13.20
2019-05-18T08:55:35.413Z,12.03
2019-05-18T09:00:54.149Z,12.20
2019-05-18T09:06:12.795Z,10.30
2019-05-18T09:11:31.469Z,12.50
2019-05-18T09:16:50.045Z,8.20
2019-05-18T09:22:22.555Z,10.77
2019-05-18T09:27:28.996Z,10.93
2019-05-18T09:32:47.652Z,10.90
2019-05-18T09:38:06.289Z,9.30
2019-05-18T09:43:25.047Z,9.57
2019-05-18T09:48:43.702Z,12.27
2019-05-18T09:54:02.422Z,9.47
2019-05-18T09:59:21.059Z,8.97
2019-05-18T10:04:39.730Z,10.57
2019-05-18T10:09:58.397Z,7.60
2019-05-18T10:15:17.138Z,14.75
2019-05-18T10:20:35.774Z,10.93
2019-05-18T10:25:54.340Z,6.20
2019-05-18T10:31:13.058Z,6.23
2019-05-18T10:36:31.720Z,7.30
2019-05-18T10:41:50.352Z,5.63
2019-05-18T10:47:09.535Z,6.57
2019-05-18T10:52:28.178Z,5.90
2019-05-18T10:57:46.897Z,6.37
2019-05-18T11:03:05.611Z,6.67
2019-05-18T11:08:24.286Z,7.00
2019-05-18T11:13:42.926Z,5.07
2019-05-18T11:19:01.574Z,7.10
2019-05-18T11:24:20.283Z,8.40
2019-05-18T11:29:38.922Z,11.10
2019-05-18T11:34:57.570Z,8.83
2019-05-18T11:40:16.622Z,6.25
2019-05-18T11:45:35.266Z,10.93
2019-05-18T11:50:53.920Z,7.30
2019-05-18T11:56:12.569Z,9.27
2019-05-18T12:01:31.377Z,5.80
2019-05-18T12:06:49.965Z,10.37
2019-05-18T12:12:08.607Z,5.53
2019-05-18T12:17:27.260Z,7.33
2019-05-18T12:22:45.961Z,6.37
2019-05-18T12:28:04.679Z,6.57
2019-05-18T12:33:23.324Z,7.67
2019-05-18T12:38:41.970Z,6.77
2019-05-18T12:44:00.614Z,7.93
2019-05-18T12:49:19.270Z,5.23
2019-05-18T12:54:46.561Z,6.73
2019-05-18T13:00:00.155Z,12.93
2019-05-18T13:05:19.922Z,14.20
2019-05-18T13:10:39.390Z,18.10
2019-05-18T13:15:58.090Z,18.63
2019-05-18T13:21:17.021Z,3.83
2019-05-18T13:26:35.670Z,6.07
2019-05-18T13:31:54.235Z,9.07
2019-05-18T13:37:12.868Z,4.30
2019-05-18T13:42:31.513Z,7.00
2019-05-18T13:47:50.167Z,8.30
2019-05-18T13:53:08.817Z,8.73
2019-05-18T13:58:27.466Z,6.90
2019-05-18T14:03:46.118Z,6.40
2019-05-18T14:09:05.579Z,6.57
2019-05-18T14:14:24.192Z,4.83
2019-05-18T14:19:43.163Z,6.30
2019-05-18T14:25:10.534Z,5.43
2019-05-18T14:30:23.929Z,7.42
2019-05-18T14:35:51.386Z,7.77
2019-05-18T14:41:10.725Z,5.40
2019-05-18T14:46:29.363Z,12.60
2019-05-18T14:51:47.996Z,5.93
2019-05-18T14:57:06.558Z,7.10
2019-05-18T15:02:31.086Z,7.80
2019-05-18T15:07:49.988Z,6.70
2019-05-18T15:13:08.732Z,6.47
2019-05-18T15:18:27.367Z,7.27
2019-05-18T15:23:46.469Z,4.70
2019-05-18T15:29:05.027Z,7.90
2019-05-18T15:34:24.045Z,4.47
2019-05-18T15:39:42.700Z,9.40
2019-05-18T15:45:01.568Z,5.13
2019-05-18T15:50:20.434Z,3.15
2019-05-18T15:56:34.052Z,3.93
2019-05-18T16:02:50.095Z,4.33
2019-05-18T16:08:08.707Z,4.33
2019-05-18T16:13:27.397Z,5.90
2019-05-18T16:18:46.323Z,4.20
2019-05-18T16:24:05.077Z,5.43
2019-05-18T16:29:23.738Z,5.93
2019-05-18T16:34:42.376Z,2.57
2019-05-18T16:40:01.082Z,3.47
2019-05-18T16:45:20.321Z,3.35
2019-05-18T16:50:39.010Z,5.33
2019-05-18T16:55:57.866Z,5.63
2019-05-18T17:01:16.669Z,4.43
2019-05-18T17:06:35.315Z,3.80
2019-05-18T17:11:53.970Z,4.07
2019-05-18T17:17:12.698Z,5.00
2019-05-18T17:22:31.270Z,4.10
2019-05-18T17:27:49.929Z,4.43
2019-05-18T17:33:08.565Z,4.37
2019-05-18T17:38:27.191Z,3.90
2019-05-18T17:43:45.841Z,6.83
2019-05-18T17:49:05.897Z,7.27
2019-05-18T17:54:24.455Z,4.47
2019-05-18T17:59:43.090Z,10.77
2019-05-18T18:05:01.747Z,4.93
2019-05-18T18:10:21.186Z,4.08
2019-05-18T18:15:39.841Z,5.93
2019-05-18T18:20:58.483Z,6.57
2019-05-18T18:26:17.119Z,5.37
2019-05-18T18:31:35.757Z,4.47
2019-05-18T18:36:54.384Z,5.63
2019-05-18T18:42:13.100Z,3.70
2019-05-18T18:47:31.752Z,6.03
2019-05-18T18:52:50.342Z,3.53
2019-05-18T18:58:08.916Z,5.83
2019-05-18T19:03:27.491Z,5.03
2019-05-18T19:08:46.131Z,5.90
2019-05-18T19:14:05.568Z,5.07
2019-05-18T19:19:24.196Z,4.13
2019-05-18T19:24:42.813Z,5.20
2019-05-18T19:30:03.520Z,7.77
2019-05-18T19:35:22.248Z,8.70
2019-05-18T19:40:40.963Z,6.93
2019-05-18T19:45:59.607Z,7.50
2019-05-18T19:51:18.355Z,9.67
2019-05-18T19:56:41.986Z,6.93
2019-05-18T20:01:58.931Z,17.03
2019-05-18T20:07:20.039Z,10.47
2019-05-18T20:12:38.739Z,10.23
2019-05-18T20:17:57.813Z,10.30
2019-05-18T20:23:16.446Z,10.70
2019-05-18T20:28:35.088Z,10.33
2019-05-18T20:33:53.967Z,7.83
2019-05-18T20:39:12.628Z,11.07
2019-05-18T20:44:31.642Z,8.47
2019-05-18T20:49:50.290Z,22.73
2019-05-18T20:55:09.135Z,21.33
2019-05-18T21:00:27.811Z,19.60
2019-05-18T21:05:46.441Z,17.70
2019-05-18T21:11:05.782Z,13.97
2019-05-18T21:16:24.441Z,10.57
2019-05-18T21:21:43.099Z,12.23
2019-05-18T21:27:01.778Z,11.67
2019-05-18T21:32:20.415Z,15.30
2019-05-18T21:37:39.069Z,15.33
2019-05-18T21:42:57.702Z,14.63
2019-05-18T21:48:16.368Z,18.77
2019-05-18T21:53:35.020Z,20.17
2019-05-18T21:58:53.671Z,17.53
2019-05-18T22:04:12.409Z,18.93
2019-05-18T22:09:31.148Z,17.13
2019-05-18T22:14:49.812Z,17.63
2019-05-18T22:20:08.616Z,18.60
2019-05-18T22:25:27.404Z,21.77
2019-05-18T22:30:46.468Z,18.47
2019-05-18T22:36:05.123Z,25.53
2019-05-18T22:41:23.806Z,20.20
2019-05-18T22:46:42.378Z,26.90
2019-05-18T22:52:01.013Z,25.37
2019-05-18T22:57:19.747Z,23.13
2019-05-18T23:02:38.392Z,26.70
2019-05-18T23:07:57.042Z,28.30
2019-05-18T23:13:15.628Z,27.77
2019-05-18T23:18:34.276Z,31.60
2019-05-18T23:23:52.804Z,28.90
2019-05-18T23:29:11.757Z,29.37
2019-05-18T23:34:30.332Z,28.10
2019-05-18T23:39:48.986Z,27.52
2019-05-18T23:45:07.830Z,29.40
2019-05-18T23:50:26.501Z,28.77
2019-05-18T23:55:45.156Z,27.83
